createdAt,value
2023-08-17T00:00:44.488Z,19.57
2023-08-17T00:03:36.445Z,19.56
2023-08-17T00:06:44.160Z,19.55
2023-08-17T00:09:28.123Z,19.55
2023-08-17T00:12:18.537Z,19.55
2023-08-17T00:14:48.240Z,19.55
2023-08-17T00:17:25.215Z,19.56
2023-08-17T00:20:02.271Z,19.57
2023-08-17T00:22:51.114Z,19.58
2023-08-17T00:25:28.011Z,19.61
2023-08-17T00:28:35.702Z,19.64
2023-08-17T00:31:10.312Z,19.66
2023-08-17T00:33:58.953Z,19.70
2023-08-17T00:36:31.996Z,19.74
2023-08-17T00:39:20.649Z,19.79
2023-08-17T00:41:51.904Z,19.81
2023-08-17T00:44:28.575Z,19.83
2023-08-17T00:47:17.470Z,19.86
2023-08-17T00:49:54.596Z,19.88
2023-08-17T00:52:50.167Z,19.89
2023-08-17T00:55:27.291Z,19.88
2023-08-17T00:58:16.142Z,19.88
2023-08-17T01:01:09.658Z,19.88
2023-08-17T01:04:00.951Z,19.88
2023-08-17T01:06:48.909Z,19.87
2023-08-17T01:09:40.896Z,19.87
2023-08-17T01:12:11.156Z,19.85
2023-08-17T01:14:41.438Z,19.83
2023-08-17T01:17:36.982Z,19.81
2023-08-17T01:20:27.935Z,19.81
2023-08-17T01:23:17.055Z,19.79
2023-08-17T01:25:50.628Z,19.78
2023-08-17T01:28:41.057Z,19.77
2023-08-17T01:31:17.826Z,19.74
2023-08-17T01:33:49.685Z,19.73
2023-08-17T01:36:39.211Z,19.70
2023-08-17T01:39:13.435Z,19.70
2023-08-17T01:42:09.544Z,19.69
2023-08-17T01:44:49.674Z,19.68
2023-08-17T01:47:41.054Z,19.69
2023-08-17T01:50:10.122Z,19.70
2023-08-17T01:52:43.567Z,19.70
2023-08-17T01:55:24.260Z,19.70
2023-08-17T01:58:13.670Z,19.69
2023-08-17T02:01:01.796Z,19.70
2023-08-17T02:03:45.589Z,19.71
2023-08-17T02:06:37.261Z,19.73
2023-08-17T02:09:26.631Z,19.76
2023-08-17T02:12:17.468Z,19.76
2023-08-17T02:15:06.623Z,19.76
2023-08-17T02:18:10.440Z,19.76
2023-08-17T02:20:43.570Z,19.76
2023-08-17T02:23:39.384Z,19.74
2023-08-17T02:26:16.508Z,19.71
2023-08-17T02:29:00.786Z,19.69
2023-08-17T02:31:37.342Z,19.68
2023-08-17T02:34:06.563Z,19.66
2023-08-17T02:36:49.969Z,19.66
2023-08-17T02:39:41.539Z,19.65
2023-08-17T02:42:30.379Z,19.63
2023-08-17T02:44:58.747Z,19.60
2023-08-17T02:47:47.171Z,19.56
2023-08-17T02:50:20.484Z,19.53
2023-08-17T02:52:57.756Z,19.49
2023-08-17T02:55:29.368Z,19.49
2023-08-17T02:58:21.569Z,19.47
2023-08-17T03:01:49.268Z,19.48
2023-08-17T03:04:42.721Z,19.50
2023-08-17T03:07:56.163Z,19.54
2023-08-17T03:10:44.483Z,19.57
2023-08-17T03:13:13.045Z,19.61
2023-08-17T03:16:00.950Z,19.65
2023-08-17T03:18:35.639Z,19.69
2023-08-17T03:21:44.063Z,19.72
2023-08-17T03:24:14.077Z,19.74
2023-08-17T03:26:42.995Z,19.77
2023-08-17T03:29:16.055Z,19.80
2023-08-17T03:32:06.990Z,19.82
2023-08-17T03:34:57.047Z,19.84
2023-08-17T03:37:44.910Z,19.88
2023-08-17T03:40:52.764Z,19.90
2023-08-17T03:43:40.311Z,19.93
2023-08-17T03:46:29.985Z,19.95
2023-08-17T03:49:38.057Z,19.97
2023-08-17T03:52:09.252Z,19.98
2023-08-17T03:54:49.825Z,19.98
2023-08-17T03:57:35.027Z,19.98
2023-08-17T04:00:05.286Z,19.98
2023-08-17T04:02:47.699Z,19.98
2023-08-17T04:05:20.691Z,19.98
2023-08-17T04:08:29.082Z,19.99
2023-08-17T04:10:58.543Z,20.00
2023-08-17T04:14:07.166Z,20.03
2023-08-17T04:16:35.995Z,20.08
2023-08-17T04:19:04.959Z,20.11
2023-08-17T04:22:14.834Z,20.15
2023-08-17T04:24:47.008Z,20.17
2023-08-17T04:27:17.057Z,20.21
2023-08-17T04:29:46.132Z,20.24
2023-08-17T04:32:15.810Z,20.25
2023-08-17T04:35:04.397Z,20.28
2023-08-17T04:37:45.945Z,20.32
2023-08-17T04:40:16.768Z,20.37
2023-08-17T04:43:03.213Z,20.42
2023-08-17T04:45:32.981Z,20.45
2023-08-17T04:48:38.576Z,20.48
2023-08-17T04:51:17.032Z,20.53
2023-08-17T04:53:46.835Z,20.56
2023-08-17T04:56:15.092Z,20.57
2023-08-17T04:59:07.735Z,20.61
2023-08-17T05:01:43.336Z,20.64
2023-08-17T05:04:12.597Z,20.69
2023-08-17T05:07:02.049Z,20.73
2023-08-17T05:09:30.788Z,20.75
2023-08-17T05:12:00.492Z,20.77
2023-08-17T05:15:11.533Z,20.79
2023-08-17T05:17:48.331Z,20.76
2023-08-17T05:20:17.991Z,20.74
2023-08-17T05:22:49.098Z,20.73
2023-08-17T05:25:57.220Z,20.69
2023-08-17T05:28:33.859Z,20.69
2023-08-17T05:31:07.974Z,20.65
2023-08-17T05:33:38.586Z,20.63
2023-08-17T05:36:30.669Z,20.62
2023-08-17T05:39:00.309Z,20.63
2023-08-17T05:41:51.201Z,20.70
2023-08-17T05:44:36.007Z,20.77
2023-08-17T05:47:11.249Z,20.85
2023-08-17T05:50:02.084Z,20.93
2023-08-17T05:52:41.343Z,21.05
2023-08-17T05:55:12.192Z,21.15
2023-08-17T05:58:00.826Z,21.25
2023-08-17T06:01:00.408Z,21.29
2023-08-17T06:03:50.343Z,21.36
2023-08-17T06:06:22.312Z,21.42
2023-08-17T06:08:52.639Z,21.47
2023-08-17T06:11:44.526Z,21.47
2023-08-17T06:14:34.074Z,21.47
2023-08-17T06:17:22.242Z,21.46
2023-08-17T06:20:11.685Z,21.47
2023-08-17T06:22:40.441Z,21.48
2023-08-17T06:25:39.323Z,21.52
2023-08-17T06:28:08.984Z,21.56
2023-08-17T06:30:45.573Z,21.58
2023-08-17T06:33:18.525Z,21.64
2023-08-17T06:35:47.319Z,21.74
2023-08-17T06:38:22.619Z,21.81
2023-08-17T06:40:50.901Z,21.85
2023-08-17T06:43:39.973Z,21.91
2023-08-17T06:46:15.738Z,22.02
2023-08-17T06:48:44.441Z,22.16
2023-08-17T06:51:12.347Z,22.34
2023-08-17T06:53:46.242Z,22.50
2023-08-17T06:56:16.036Z,22.64
2023-08-17T06:58:48.117Z,22.72
2023-08-17T07:01:18.097Z,22.87
2023-08-17T07:03:47.008Z,23.01
2023-08-17T07:06:35.703Z,23.06
2023-08-17T07:09:04.242Z,23.13
2023-08-17T07:11:35.188Z,23.10
2023-08-17T07:14:03.598Z,23.15
2023-08-17T07:16:33.917Z,23.26
2023-08-17T07:19:06.670Z,23.41
2023-08-17T07:21:42.072Z,23.54
2023-08-17T07:24:14.891Z,23.61
2023-08-17T07:26:59.344Z,23.65
2023-08-17T07:29:35.637Z,23.77
2023-08-17T07:32:05.956Z,23.81
2023-08-17T07:34:34.337Z,23.85
2023-08-17T07:37:06.779Z,23.93
2023-08-17T07:39:54.870Z,24.03
2023-08-17T07:42:30.892Z,24.16
2023-08-17T07:45:06.348Z,24.24
2023-08-17T07:47:49.806Z,24.33
2023-08-17T07:50:35.169Z,24.35
2023-08-17T07:53:04.879Z,24.43
2023-08-17T07:55:33.607Z,24.52
2023-08-17T07:58:23.958Z,24.59
2023-08-17T08:01:02.832Z,24.66
2023-08-17T08:03:35.398Z,24.71
2023-08-17T08:06:03.743Z,24.78
2023-08-17T08:08:34.060Z,24.88
2023-08-17T08:11:10.206Z,25.01
2023-08-17T08:13:39.812Z,25.10
2023-08-17T08:16:11.250Z,25.12
2023-08-17T08:18:51.790Z,25.13
2023-08-17T08:21:20.224Z,25.20
2023-08-17T08:23:48.983Z,25.29
2023-08-17T08:26:18.350Z,25.38
2023-08-17T08:28:47.152Z,25.52
2023-08-17T08:31:18.561Z,25.70
2023-08-17T08:33:47.706Z,25.83
2023-08-17T08:36:52.017Z,26.00
2023-08-17T08:39:40.885Z,26.10
2023-08-17T08:42:26.875Z,26.21
2023-08-17T08:44:58.670Z,26.33
2023-08-17T08:47:27.117Z,26.45
2023-08-17T08:49:55.370Z,26.59
2023-08-17T08:52:45.256Z,26.65
2023-08-17T08:55:14.160Z,26.61
2023-08-17T09:00:40.138Z,26.86
2023-08-17T09:03:32.710Z,26.84
2023-08-17T09:06:08.787Z,26.90
2023-08-17T09:08:56.791Z,26.95
2023-08-17T09:11:33.301Z,26.98
2023-08-17T09:14:01.721Z,27.02
2023-08-17T09:16:32.426Z,27.08
2023-08-17T09:19:00.936Z,27.14
2023-08-17T09:21:51.514Z,27.34
2023-08-17T09:24:36.120Z,27.43
2023-08-17T09:27:23.822Z,27.56
2023-08-17T09:30:07.854Z,27.70
2023-08-17T09:32:56.094Z,27.68
2023-08-17T09:35:28.131Z,27.60
2023-08-17T09:38:00.927Z,27.48
2023-08-17T09:40:33.455Z,27.45
2023-08-17T09:43:18.410Z,27.49
2023-08-17T09:46:02.519Z,27.57
2023-08-17T09:48:33.789Z,27.61
2023-08-17T09:51:06.250Z,27.66
2023-08-17T09:54:06.926Z,27.70
2023-08-17T09:56:51.710Z,27.68
2023-08-17T09:59:24.228Z,27.82
2023-08-17T10:01:57.306Z,27.79
2023-08-17T10:04:26.247Z,27.79
2023-08-17T10:06:55.608Z,27.88
2023-08-17T10:09:24.529Z,28.02
2023-08-17T10:14:31.027Z,28.40
2023-08-17T10:16:59.544Z,28.48
2023-08-17T10:19:27.923Z,28.54
2023-08-17T10:21:56.353Z,28.56
2023-08-17T10:24:26.500Z,28.54
2023-08-17T10:27:15.085Z,28.60
2023-08-17T10:30:00.451Z,28.75
2023-08-17T10:32:33.855Z,28.92
2023-08-17T10:35:03.388Z,29.03
2023-08-17T10:37:36.223Z,29.24
2023-08-17T10:40:05.645Z,29.37
2023-08-17T10:42:56.182Z,29.51
2023-08-17T10:45:30.412Z,29.69
2023-08-17T10:48:01.935Z,29.90
2023-08-17T10:50:32.323Z,30.14
2023-08-17T10:53:01.547Z,30.31
2023-08-17T10:55:33.022Z,30.37
2023-08-17T10:58:01.585Z,30.49
2023-08-17T11:00:29.780Z,30.48
2023-08-17T11:02:59.748Z,30.56
2023-08-17T11:05:47.667Z,30.62
2023-08-17T11:08:17.514Z,30.59
2023-08-17T11:10:49.372Z,30.85
2023-08-17T11:13:19.358Z,30.91
2023-08-17T11:15:47.593Z,30.79
2023-08-17T11:18:19.917Z,30.69
2023-08-17T11:20:52.032Z,30.57
2023-08-17T11:23:25.996Z,30.40
2023-08-17T11:25:55.719Z,30.25
2023-08-17T11:28:25.357Z,30.05
2023-08-17T11:31:05.659Z,29.98
2023-08-17T11:33:41.613Z,29.98
2023-08-17T11:36:11.452Z,30.04
2023-08-17T11:38:39.468Z,30.06
2023-08-17T11:41:10.427Z,30.11
2023-08-17T11:43:39.557Z,30.12
2023-08-17T11:46:08.307Z,30.17
2023-08-17T11:48:36.962Z,30.16
2023-08-17T11:51:06.228Z,30.26
2023-08-17T11:53:34.771Z,30.32
2023-08-17T11:56:11.234Z,30.30
2023-08-17T11:58:48.455Z,30.31
2023-08-17T12:01:18.282Z,30.30
2023-08-17T12:03:47.600Z,30.26
2023-08-17T12:06:16.245Z,30.16
2023-08-17T12:08:46.706Z,30.16
2023-08-17T12:11:15.162Z,30.22
2023-08-17T12:13:44.852Z,30.19
2023-08-17T12:16:15.149Z,30.11
2023-08-17T12:18:43.261Z,30.13
2023-08-17T12:21:11.216Z,30.12
2023-08-17T12:23:39.704Z,30.09
2023-08-17T12:26:08.592Z,30.06
2023-08-17T12:28:38.339Z,30.12
2023-08-17T12:31:08.234Z,30.16
2023-08-17T12:33:38.183Z,30.22
2023-08-17T12:36:07.337Z,30.21
2023-08-17T12:38:36.364Z,30.15
2023-08-17T12:41:07.478Z,30.11
2023-08-17T12:43:38.976Z,30.13
2023-08-17T12:46:09.173Z,30.07
2023-08-17T12:48:42.074Z,30.09
2023-08-17T12:51:17.957Z,30.07
2023-08-17T12:53:50.217Z,30.03
2023-08-17T12:56:22.635Z,30.00
2023-08-17T12:58:52.101Z,29.93
2023-08-17T13:01:21.631Z,29.97
2023-08-17T13:03:49.937Z,29.99
2023-08-17T13:06:23.792Z,29.95
2023-08-17T13:08:57.064Z,30.01
2023-08-17T13:11:26.012Z,30.09
2023-08-17T13:14:14.541Z,30.18
2023-08-17T13:16:42.649Z,30.32
2023-08-17T13:19:14.319Z,30.47
2023-08-17T13:21:42.186Z,30.57
2023-08-17T13:24:11.540Z,30.80
2023-08-17T13:26:40.401Z,31.03
2023-08-17T13:29:17.757Z,31.41
2023-08-17T13:31:56.189Z,31.77
2023-08-17T13:34:26.489Z,32.10
2023-08-17T13:36:57.480Z,32.36
2023-08-17T13:39:31.261Z,32.63
2023-08-17T13:42:00.828Z,32.88
2023-08-17T13:44:31.126Z,32.89
2023-08-17T13:47:07.376Z,32.97
2023-08-17T13:49:38.939Z,32.85
2023-08-17T13:52:06.696Z,32.81
2023-08-17T13:54:34.612Z,32.76
2023-08-17T13:57:11.002Z,32.62
2023-08-17T13:59:40.550Z,32.47
2023-08-17T14:02:09.721Z,32.38
2023-08-17T14:04:37.726Z,32.31
2023-08-17T14:07:06.539Z,32.28
2023-08-17T14:09:38.351Z,32.26
2023-08-17T14:12:07.851Z,32.16
2023-08-17T14:14:36.273Z,31.97
2023-08-17T14:17:04.748Z,31.89
2023-08-17T14:19:35.117Z,31.82
2023-08-17T14:22:04.229Z,31.66
2023-08-17T14:24:32.023Z,31.49
2023-08-17T14:27:01.422Z,31.35
2023-08-17T14:29:49.193Z,31.28
2023-08-17T14:32:17.163Z,31.28
2023-08-17T14:34:46.579Z,31.15
2023-08-17T14:37:15.134Z,30.98
2023-08-17T14:39:42.754Z,30.85
2023-08-17T14:42:10.603Z,30.75
2023-08-17T14:45:07.589Z,30.79
2023-08-17T14:47:36.843Z,30.85
2023-08-17T14:50:07.227Z,30.84
2023-08-17T14:52:38.161Z,30.66
2023-08-17T14:55:07.065Z,30.61
2023-08-17T14:57:36.237Z,30.53
2023-08-17T15:00:04.630Z,30.49
2023-08-17T15:02:33.676Z,30.43
2023-08-17T15:05:03.787Z,30.40
2023-08-17T15:07:36.820Z,30.33
2023-08-17T15:10:05.579Z,30.26
2023-08-17T15:12:34.299Z,30.23
2023-08-17T15:15:12.137Z,30.14
2023-08-17T15:17:42.788Z,30.03
2023-08-17T15:20:12.759Z,29.97
2023-08-17T15:22:40.892Z,29.91
2023-08-17T15:25:09.588Z,29.88
2023-08-17T15:27:38.983Z,29.80
2023-08-17T15:30:11.916Z,30.21
2023-08-17T15:32:42.544Z,30.91
2023-08-17T15:35:12.461Z,31.42
2023-08-17T15:37:41.094Z,31.41
2023-08-17T15:40:09.938Z,31.53
2023-08-17T15:42:38.632Z,31.71
2023-08-17T15:45:07.324Z,31.60
2023-08-17T15:47:36.669Z,31.27
2023-08-17T15:50:04.532Z,31.07
2023-08-17T15:52:33.986Z,31.56
2023-08-17T15:55:01.852Z,32.31
2023-08-17T15:57:30.423Z,32.83
2023-08-17T16:00:04.903Z,33.36
2023-08-17T16:02:36.897Z,33.76
2023-08-17T16:05:09.361Z,34.11
2023-08-17T16:07:41.071Z,34.25
2023-08-17T16:10:11.371Z,33.91
2023-08-17T16:12:42.854Z,33.36
2023-08-17T16:15:11.704Z,32.72
2023-08-17T16:17:41.806Z,32.26
2023-08-17T16:20:15.348Z,31.78
2023-08-17T16:22:43.917Z,31.46
2023-08-17T16:25:13.156Z,31.37
2023-08-17T16:27:43.697Z,31.66
2023-08-17T16:30:12.342Z,31.74
2023-08-17T16:32:40.577Z,31.96
2023-08-17T16:35:09.688Z,32.32
2023-08-17T16:37:54.159Z,32.60
2023-08-17T16:40:39.379Z,32.83
2023-08-17T16:43:14.811Z,32.66
2023-08-17T16:45:43.606Z,32.90
2023-08-17T16:48:16.695Z,33.02
2023-08-17T16:50:48.652Z,32.98
2023-08-17T16:53:16.931Z,32.95
2023-08-17T16:55:55.304Z,32.88
2023-08-17T16:58:24.653Z,32.48
2023-08-17T17:00:53.197Z,32.43
2023-08-17T17:03:21.392Z,32.13
2023-08-17T17:05:52.370Z,31.62
2023-08-17T17:08:20.871Z,31.06
2023-08-17T17:11:10.237Z,30.35
2023-08-17T17:13:39.178Z,29.82
2023-08-17T17:16:07.737Z,29.33
2023-08-17T17:18:40.626Z,28.96
2023-08-17T17:21:28.523Z,28.53
2023-08-17T17:24:01.233Z,28.23
2023-08-17T17:26:29.908Z,27.94
2023-08-17T17:29:03.875Z,27.65
2023-08-17T17:31:32.969Z,27.35
2023-08-17T17:34:09.012Z,27.12
2023-08-17T17:37:01.647Z,26.89
2023-08-17T17:39:31.188Z,26.72
2023-08-17T17:42:04.954Z,26.58
2023-08-17T17:44:35.173Z,26.42
2023-08-17T17:47:06.451Z,26.26
2023-08-17T17:49:35.179Z,26.14
2023-08-17T17:52:24.493Z,26.02
2023-08-17T17:54:53.288Z,25.87
2023-08-17T17:57:26.299Z,25.73
2023-08-17T17:59:58.644Z,25.61
2023-08-17T18:02:49.376Z,25.48
2023-08-17T18:05:38.556Z,25.38
2023-08-17T18:08:08.570Z,25.32
2023-08-17T18:10:37.005Z,25.26
2023-08-17T18:13:08.534Z,25.18
2023-08-17T18:15:38.713Z,25.12
2023-08-17T18:18:32.562Z,25.06
2023-08-17T18:21:01.863Z,25.01
2023-08-17T18:23:31.286Z,24.97
2023-08-17T18:26:19.719Z,24.94
2023-08-17T18:29:08.367Z,24.92
2023-08-17T18:31:37.521Z,24.89
2023-08-17T18:34:27.350Z,24.89
2023-08-17T18:36:56.035Z,24.91
2023-08-17T18:39:44.637Z,24.90
2023-08-17T18:42:12.903Z,24.87
2023-08-17T18:45:21.332Z,24.81
2023-08-17T18:48:10.026Z,24.76
2023-08-17T18:51:20.017Z,24.71
2023-08-17T18:53:49.357Z,24.66
2023-08-17T18:56:20.244Z,24.63
2023-08-17T18:59:03.762Z,24.61
2023-08-17T19:02:12.526Z,24.58
2023-08-17T19:04:43.094Z,24.53
2023-08-17T19:07:11.786Z,24.45
2023-08-17T19:09:59.963Z,24.36
2023-08-17T19:13:06.718Z,24.29
2023-08-17T19:15:43.300Z,24.23
2023-08-17T19:18:33.245Z,24.18
2023-08-17T19:21:02.034Z,24.15
2023-08-17T19:23:46.751Z,24.12
2023-08-17T19:26:23.000Z,24.07
2023-08-17T19:28:51.845Z,24.05
2023-08-17T19:31:24.251Z,24.01
2023-08-17T19:33:54.602Z,23.98
2023-08-17T19:36:25.176Z,23.94
2023-08-17T19:39:14.155Z,23.94
2023-08-17T19:41:43.858Z,23.97
2023-08-17T19:44:13.733Z,23.99
2023-08-17T19:47:06.323Z,23.94
2023-08-17T19:49:37.062Z,23.91
2023-08-17T19:52:06.275Z,23.86
2023-08-17T19:54:53.350Z,23.78
2023-08-17T19:57:31.925Z,23.75
2023-08-17T20:00:02.697Z,23.73
2023-08-17T20:02:43.474Z,23.71
2023-08-17T20:05:17.214Z,23.70
2023-08-17T20:08:09.006Z,23.68
2023-08-17T20:10:38.197Z,23.68
2023-08-17T20:13:08.988Z,23.67
2023-08-17T20:15:43.070Z,23.64
2023-08-17T20:18:15.663Z,23.62
2023-08-17T20:20:44.139Z,23.60
2023-08-17T20:23:14.155Z,23.58
2023-08-17T20:25:52.922Z,23.56
2023-08-17T20:28:44.653Z,23.52
2023-08-17T20:31:39.584Z,23.47
2023-08-17T20:34:15.622Z,23.43
2023-08-17T20:36:52.906Z,23.41
2023-08-17T20:39:23.374Z,23.38
2023-08-17T20:41:56.089Z,23.37
2023-08-17T20:44:40.736Z,23.37
2023-08-17T20:47:32.594Z,23.37
2023-08-17T20:50:32.310Z,23.36
2023-08-17T20:53:35.254Z,23.33
2023-08-17T20:56:05.334Z,23.32
2023-08-17T20:58:43.612Z,23.29
2023-08-17T21:01:12.990Z,23.27
2023-08-17T21:04:02.293Z,23.23
2023-08-17T21:06:39.929Z,23.21
2023-08-17T21:09:07.798Z,23.20
2023-08-17T21:11:56.409Z,23.20
2023-08-17T21:15:11.735Z,23.19
2023-08-17T21:18:00.695Z,23.16
2023-08-17T21:20:51.148Z,23.16
2023-08-17T21:23:39.411Z,23.15
2023-08-17T21:26:11.795Z,23.16
2023-08-17T21:29:34.588Z,23.15
2023-08-17T21:32:03.933Z,23.13
2023-08-17T21:34:33.345Z,23.11
2023-08-17T21:37:22.242Z,23.08
2023-08-17T21:40:18.212Z,23.07
2023-08-17T21:42:50.381Z,23.08
2023-08-17T21:45:34.869Z,23.10
2023-08-17T21:48:04.446Z,23.11
2023-08-17T21:50:34.201Z,23.10
2023-08-17T21:53:07.934Z,23.08
2023-08-17T21:55:57.763Z,23.05
2023-08-17T21:58:47.092Z,23.04
2023-08-17T22:01:38.041Z,23.04
2023-08-17T22:04:12.219Z,23.03
2023-08-17T22:07:04.883Z,23.03
2023-08-17T22:09:49.077Z,23.03
2023-08-17T22:12:44.689Z,23.03
2023-08-17T22:15:17.134Z,23.03
2023-08-17T22:17:46.288Z,23.03
2023-08-17T22:20:18.066Z,23.02
2023-08-17T22:22:55.232Z,23.04
2023-08-17T22:25:26.962Z,23.04
2023-08-17T22:28:03.354Z,23.03
2023-08-17T22:30:34.099Z,23.02
2023-08-17T22:33:37.560Z,23.02
2023-08-17T22:36:14.741Z,23.01
2023-08-17T22:38:45.574Z,23.00
2023-08-17T22:41:42.792Z,22.97
2023-08-17T22:44:21.826Z,22.94
2023-08-17T22:47:11.549Z,22.91
2023-08-17T22:49:41.602Z,22.87
2023-08-17T22:52:33.032Z,22.86
2023-08-17T22:55:17.134Z,22.87
2023-08-17T22:58:09.079Z,22.88
2023-08-17T23:00:56.992Z,22.91
2023-08-17T23:03:27.141Z,22.90
2023-08-17T23:05:55.055Z,22.90
2023-08-17T23:08:27.175Z,22.86
2023-08-17T23:11:19.987Z,22.83
2023-08-17T23:13:51.954Z,22.82
2023-08-17T23:16:39.781Z,22.82
2023-08-17T23:19:20.794Z,22.78
2023-08-17T23:22:29.168Z,22.75
2023-08-17T23:25:26.249Z,22.72
2023-08-17T23:28:25.741Z,22.70
2023-08-17T23:30:55.033Z,22.67
2023-08-17T23:33:47.073Z,22.64
2023-08-17T23:36:24.405Z,22.59
2023-08-17T23:39:34.657Z,22.55
2023-08-17T23:42:10.794Z,22.52
2023-08-17T23:45:00.903Z,22.50
2023-08-17T23:48:03.975Z,22.48
2023-08-17T23:50:54.359Z,22.48
2023-08-17T23:54:10.251Z,22.50
2023-08-17T23:56:46.047Z,22.53
2023-08-17T23:59:49.742Z,22.55
